sensor_id;sensor_type;location;lat;lon;timestamp;P1;durP1;ratioP1;P2;durP2;ratioP2
23115;SDS011;11727;52.134;5.052;2023-04-24T00:01:13;1.25;;;0.30;;
23115;SDS011;11727;52.134;5.052;2023-04-24T00:03:40;1.67;;;0.30;;
23115;SDS011;11727;52.134;5.052;2023-04-24T00:06:06;2.67;;;0.57;;
23115;SDS011;11727;52.134;5.052;2023-04-24T00:08:33;1.10;;;0.93;;
23115;SDS011;11727;52.134;5.052;2023-04-24T00:11:01;3.05;;;1.08;;
23115;SDS011;11727;52.134;5.052;2023-04-24T00:13:27;2.60;;;1.00;;
23115;SDS011;11727;52.134;5.052;2023-04-24T00:15:53;1.10;;;0.63;;
23115;SDS011;11727;52.134;5.052;2023-04-24T00:18:20;1.92;;;0.70;;
23115;SDS011;11727;52.134;5.052;2023-04-24T00:20:46;1.80;;;0.60;;
23115;SDS011;11727;52.134;5.052;2023-04-24T00:23:12;0.60;;;0.32;;
23115;SDS011;11727;52.134;5.052;2023-04-24T00:25:38;8.35;;;0.77;;
23115;SDS011;11727;52.134;5.052;2023-04-24T00:28:05;2.38;;;0.60;;
23115;SDS011;11727;52.134;5.052;2023-04-24T00:30:30;2.08;;;0.77;;
23115;SDS011;11727;52.134;5.052;2023-04-24T00:32:56;1.00;;;0.52;;
23115;SDS011;11727;52.134;5.052;2023-04-24T00:35:22;1.13;;;0.75;;
23115;SDS011;11727;52.134;5.052;2023-04-24T00:37:48;1.73;;;1.30;;
23115;SDS011;11727;52.134;5.052;2023-04-24T00:40:14;4.20;;;1.02;;
23115;SDS011;11727;52.134;5.052;2023-04-24T00:42:40;3.00;;;1.13;;
23115;SDS011;11727;52.134;5.052;2023-04-24T00:45:06;3.67;;;1.17;;
23115;SDS011;11727;52.134;5.052;2023-04-24T00:47:35;2.10;;;0.90;;
23115;SDS011;11727;52.134;5.052;2023-04-24T00:50:02;3.25;;;0.88;;
23115;SDS011;11727;52.134;5.052;2023-04-24T00:52:28;1.65;;;1.00;;
23115;SDS011;11727;52.134;5.052;2023-04-24T00:54:56;2.50;;;1.13;;
23115;SDS011;11727;52.134;5.052;2023-04-24T00:57:21;1.13;;;0.50;;
23115;SDS011;11727;52.134;5.052;2023-04-24T00:59:48;2.70;;;0.97;;
23115;SDS011;11727;52.134;5.052;2023-04-24T01:02:14;1.92;;;0.80;;
23115;SDS011;11727;52.134;5.052;2023-04-24T01:04:40;3.10;;;1.00;;
23115;SDS011;11727;52.134;5.052;2023-04-24T01:07:06;1.88;;;0.98;;
23115;SDS011;11727;52.134;5.052;2023-04-24T01:09:35;1.65;;;0.90;;
23115;SDS011;11727;52.134;5.052;2023-04-24T01:12:06;2.13;;;1.05;;
23115;SDS011;11727;52.134;5.052;2023-04-24T01:14:33;2.72;;;1.17;;
23115;SDS011;11727;52.134;5.052;2023-04-24T01:16:58;2.47;;;0.90;;
23115;SDS011;11727;52.134;5.052;2023-04-24T01:19:24;1.20;;;0.70;;
23115;SDS011;11727;52.134;5.052;2023-04-24T01:21:50;3.20;;;0.80;;
23115;SDS011;11727;52.134;5.052;2023-04-24T01:24:18;2.22;;;0.80;;
23115;SDS011;11727;52.134;5.052;2023-04-24T01:26:44;1.88;;;0.98;;
23115;SDS011;11727;52.134;5.052;2023-04-24T01:29:11;2.67;;;1.40;;
23115;SDS011;11727;52.134;5.052;2023-04-24T01:31:36;2.50;;;0.88;;
23115;SDS011;11727;52.134;5.052;2023-04-24T01:34:04;3.95;;;1.05;;
23115;SDS011;11727;52.134;5.052;2023-04-24T01:36:30;4.80;;;1.00;;
23115;SDS011;11727;52.134;5.052;2023-04-24T01:38:57;2.00;;;1.13;;
23115;SDS011;11727;52.134;5.052;2023-04-24T01:41:23;1.75;;;0.93;;
23115;SDS011;11727;52.134;5.052;2023-04-24T01:43:49;5.85;;;1.45;;
23115;SDS011;11727;52.134;5.052;2023-04-24T01:46:16;1.23;;;0.80;;
23115;SDS011;11727;52.134;5.052;2023-04-24T01:48:41;1.92;;;1.02;;
23115;SDS011;11727;52.134;5.052;2023-04-24T01:51:07;2.45;;;1.15;;
23115;SDS011;11727;52.134;5.052;2023-04-24T01:53:33;2.72;;;1.52;;
23115;SDS011;11727;52.134;5.052;2023-04-24T01:55:59;2.50;;;1.27;;
23115;SDS011;11727;52.134;5.052;2023-04-24T01:58:26;2.67;;;1.38;;
23115;SDS011;11727;52.134;5.052;2023-04-24T02:00:52;2.47;;;1.30;;
23115;SDS011;11727;52.134;5.052;2023-04-24T02:03:17;3.20;;;1.35;;
23115;SDS011;11727;52.134;5.052;2023-04-24T02:05:43;3.00;;;1.50;;
23115;SDS011;11727;52.134;5.052;2023-04-24T02:08:10;4.05;;;1.52;;
23115;SDS011;11727;52.134;5.052;2023-04-24T02:10:35;2.38;;;1.05;;
23115;SDS011;11727;52.134;5.052;2023-04-24T02:13:01;2.03;;;1.30;;
23115;SDS011;11727;52.134;5.052;2023-04-24T02:15:27;4.03;;;1.88;;
23115;SDS011;11727;52.134;5.052;2023-04-24T02:17:52;2.72;;;1.08;;
23115;SDS011;11727;52.134;5.052;2023-04-24T02:20:18;3.13;;;1.27;;
23115;SDS011;11727;52.134;5.052;2023-04-24T02:22:44;3.30;;;1.27;;
23115;SDS011;11727;52.134;5.052;2023-04-24T02:25:10;5.85;;;1.83;;
23115;SDS011;11727;52.134;5.052;2023-04-24T02:27:35;2.33;;;1.00;;
23115;SDS011;11727;52.134;5.052;2023-04-24T02:30:01;3.08;;;1.10;;
23115;SDS011;11727;52.134;5.052;2023-04-24T02:32:28;2.17;;;1.00;;
23115;SDS011;11727;52.134;5.052;2023-04-24T02:34:53;3.22;;;1.00;;
23115;SDS011;11727;52.134;5.052;2023-04-24T02:37:19;1.35;;;0.65;;
23115;SDS011;11727;52.134;5.052;2023-04-24T02:39:44;1.52;;;0.80;;
23115;SDS011;11727;52.134;5.052;2023-04-24T02:42:10;3.17;;;1.15;;
23115;SDS011;11727;52.134;5.052;2023-04-24T02:44:36;2.88;;;1.15;;
23115;SDS011;11727;52.134;5.052;2023-04-24T02:47:01;1.60;;;0.80;;
23115;SDS011;11727;52.134;5.052;2023-04-24T02:49:27;2.97;;;0.98;;
23115;SDS011;11727;52.134;5.052;2023-04-24T02:51:53;2.83;;;1.30;;
23115;SDS011;11727;52.134;5.052;2023-04-24T02:54:18;2.95;;;1.23;;
23115;SDS011;11727;52.134;5.052;2023-04-24T02:56:44;1.75;;;1.08;;
23115;SDS011;11727;52.134;5.052;2023-04-24T02:59:10;9.38;;;1.45;;
23115;SDS011;11727;52.134;5.052;2023-04-24T03:01:35;2.42;;;1.23;;
23115;SDS011;11727;52.134;5.052;2023-04-24T03:04:01;3.85;;;1.25;;
23115;SDS011;11727;52.134;5.052;2023-04-24T03:06:27;2.80;;;0.90;;
23115;SDS011;11727;52.134;5.052;2023-04-24T03:08:53;2.08;;;1.00;;
23115;SDS011;11727;52.134;5.052;2023-04-24T03:11:19;1.38;;;0.60;;
23115;SDS011;11727;52.134;5.052;2023-04-24T03:13:45;1.92;;;0.80;;
23115;SDS011;11727;52.134;5.052;2023-04-24T03:16:10;3.40;;;1.00;;
23115;SDS011;11727;52.134;5.052;2023-04-24T03:18:36;3.63;;;0.85;;
23115;SDS011;11727;52.134;5.052;2023-04-24T03:21:02;2.15;;;1.00;;
23115;SDS011;11727;52.134;5.052;2023-04-24T03:23:28;1.65;;;0.80;;
23115;SDS011;11727;52.134;5.052;2023-04-24T03:25:54;1.70;;;0.80;;
23115;SDS011;11727;52.134;5.052;2023-04-24T03:28:20;3.20;;;1.23;;
23115;SDS011;11727;52.134;5.052;2023-04-24T03:30:45;4.25;;;1.52;;
23115;SDS011;11727;52.134;5.052;2023-04-24T03:33:11;2.08;;;1.08;;
23115;SDS011;11727;52.134;5.052;2023-04-24T03:35:36;4.30;;;1.92;;
23115;SDS011;11727;52.134;5.052;2023-04-24T03:38:02;4.07;;;1.75;;
23115;SDS011;11727;52.134;5.052;2023-04-24T03:40:29;4.18;;;1.85;;
23115;SDS011;11727;52.134;5.052;2023-04-24T03:42:55;4.03;;;2.38;;
23115;SDS011;11727;52.134;5.052;2023-04-24T03:45:21;4.32;;;1.80;;
23115;SDS011;11727;52.134;5.052;2023-04-24T03:47:46;5.07;;;2.53;;
23115;SDS011;11727;52.134;5.052;2023-04-24T03:50:12;3.65;;;2.08;;
23115;SDS011;11727;52.134;5.052;2023-04-24T03:52:37;6.10;;;2.63;;
23115;SDS011;11727;52.134;5.052;2023-04-24T03:55:03;6.43;;;2.33;;
23115;SDS011;11727;52.134;5.052;2023-04-24T03:57:29;4.10;;;2.33;;
23115;SDS011;11727;52.134;5.052;2023-04-24T03:59:55;5.70;;;2.42;;
23115;SDS011;11727;52.134;5.052;2023-04-24T04:02:20;5.18;;;2.67;;
23115;SDS011;11727;52.134;5.052;2023-04-24T04:04:46;5.32;;;2.58;;
23115;SDS011;11727;52.134;5.052;2023-04-24T04:07:11;6.95;;;2.28;;
23115;SDS011;11727;52.134;5.052;2023-04-24T04:09:37;5.88;;;2.13;;
23115;SDS011;11727;52.134;5.052;2023-04-24T04:12:03;5.28;;;2.17;;
23115;SDS011;11727;52.134;5.052;2023-04-24T04:14:29;5.10;;;2.35;;
23115;SDS011;11727;52.134;5.052;2023-04-24T04:16:54;5.03;;;2.30;;
23115;SDS011;11727;52.134;5.052;2023-04-24T04:19:20;7.88;;;2.50;;
23115;SDS011;11727;52.134;5.052;2023-04-24T04:21:46;4.82;;;2.22;;
23115;SDS011;11727;52.134;5.052;2023-04-24T04:24:15;4.97;;;2.50;;
23115;SDS011;11727;52.134;5.052;2023-04-24T04:26:41;7.55;;;3.28;;
23115;SDS011;11727;52.134;5.052;2023-04-24T04:29:12;7.43;;;2.55;;
23115;SDS011;11727;52.134;5.052;2023-04-24T04:31:38;5.80;;;2.88;;
23115;SDS011;11727;52.134;5.052;2023-04-24T04:34:04;5.72;;;2.90;;
23115;SDS011;11727;52.134;5.052;2023-04-24T04:36:30;5.20;;;2.63;;
23115;SDS011;11727;52.134;5.052;2023-04-24T04:38:56;6.20;;;2.47;;
23115;SDS011;11727;52.134;5.052;2023-04-24T04:43:50;6.15;;;2.10;;
23115;SDS011;11727;52.134;5.052;2023-04-24T04:46:15;6.20;;;1.50;;
23115;SDS011;11727;52.134;5.052;2023-04-24T04:48:41;1.50;;;0.85;;
23115;SDS011;11727;52.134;5.052;2023-04-24T04:51:07;0.93;;;0.50;;
23115;SDS011;11727;52.134;5.052;2023-04-24T04:53:32;0.90;;;0.50;;
23115;SDS011;11727;52.134;5.052;2023-04-24T04:55:58;1.42;;;0.60;;
23115;SDS011;11727;52.134;5.052;2023-04-24T04:58:24;1.23;;;0.57;;
23115;SDS011;11727;52.134;5.052;2023-04-24T05:00:50;0.50;;;0.30;;
23115;SDS011;11727;52.134;5.052;2023-04-24T05:03:15;1.45;;;0.30;;
23115;SDS011;11727;52.134;5.052;2023-04-24T05:05:41;0.52;;;0.32;;
23115;SDS011;11727;52.134;5.052;2023-04-24T05:08:07;0.93;;;0.50;;
23115;SDS011;11727;52.134;5.052;2023-04-24T05:10:33;2.58;;;0.40;;
23115;SDS011;11727;52.134;5.052;2023-04-24T05:12:58;1.33;;;0.30;;
23115;SDS011;11727;52.134;5.052;2023-04-24T05:15:24;0.75;;;0.40;;
23115;SDS011;11727;52.134;5.052;2023-04-24T05:17:50;2.25;;;0.30;;
23115;SDS011;11727;52.134;5.052;2023-04-24T05:20:15;2.58;;;0.50;;
23115;SDS011;11727;52.134;5.052;2023-04-24T05:22:41;0.70;;;0.30;;
23115;SDS011;11727;52.134;5.052;2023-04-24T05:25:07;0.93;;;0.40;;
23115;SDS011;11727;52.134;5.052;2023-04-24T05:27:33;1.45;;;0.77;;
23115;SDS011;11727;52.134;5.052;2023-04-24T05:29:59;0.60;;;0.40;;
23115;SDS011;11727;52.134;5.052;2023-04-24T05:32:24;0.90;;;0.40;;
23115;SDS011;11727;52.134;5.052;2023-04-24T05:34:52;0.47;;;0.30;;
23115;SDS011;11727;52.134;5.052;2023-04-24T05:37:17;1.75;;;0.40;;
23115;SDS011;11727;52.134;5.052;2023-04-24T05:39:43;7.70;;;0.55;;
23115;SDS011;11727;52.134;5.052;2023-04-24T05:42:08;0.55;;;0.38;;
23115;SDS011;11727;52.134;5.052;2023-04-24T05:44:34;0.88;;;0.40;;
23115;SDS011;11727;52.134;5.052;2023-04-24T05:47:00;1.25;;;0.65;;
23115;SDS011;11727;52.134;5.052;2023-04-24T05:49:25;1.35;;;0.60;;
23115;SDS011;11727;52.134;5.052;2023-04-24T05:51:51;1.23;;;0.70;;
23115;SDS011;11727;52.134;5.052;2023-04-24T05:54:16;2.38;;;0.70;;
23115;SDS011;11727;52.134;5.052;2023-04-24T05:56:42;1.60;;;0.65;;
23115;SDS011;11727;52.134;5.052;2023-04-24T05:59:08;1.35;;;0.60;;
23115;SDS011;11727;52.134;5.052;2023-04-24T06:01:33;9.02;;;1.90;;
23115;SDS011;11727;52.134;5.052;2023-04-24T06:03:59;4.05;;;2.50;;
23115;SDS011;11727;52.134;5.052;2023-04-24T06:06:25;6.55;;;3.00;;
23115;SDS011;11727;52.134;5.052;2023-04-24T06:08:52;6.50;;;4.00;;
23115;SDS011;11727;52.134;5.052;2023-04-24T06:11:17;8.00;;;4.03;;
23115;SDS011;11727;52.134;5.052;2023-04-24T06:13:43;8.75;;;4.75;;
23115;SDS011;11727;52.134;5.052;2023-04-24T06:16:09;15.75;;;5.13;;
23115;SDS011;11727;52.134;5.052;2023-04-24T06:18:35;12.95;;;5.35;;
23115;SDS011;11727;52.134;5.052;2023-04-24T06:21:01;11.15;;;5.18;;
23115;SDS011;11727;52.134;5.052;2023-04-24T06:23:26;13.20;;;5.88;;
23115;SDS011;11727;52.134;5.052;2023-04-24T06:25:52;17.90;;;7.13;;
23115;SDS011;11727;52.134;5.052;2023-04-24T06:28:17;16.95;;;8.57;;
23115;SDS011;11727;52.134;5.052;2023-04-24T06:30:43;15.50;;;7.00;;
23115;SDS011;11727;52.134;5.052;2023-04-24T06:33:09;17.45;;;7.28;;
23115;SDS011;11727;52.134;5.052;2023-04-24T06:35:35;18.48;;;8.05;;
23115;SDS011;11727;52.134;5.052;2023-04-24T06:38:02;22.60;;;7.57;;
23115;SDS011;11727;52.134;5.052;2023-04-24T06:40:28;18.33;;;7.13;;
23115;SDS011;11727;52.134;5.052;2023-04-24T06:42:54;20.05;;;6.13;;
23115;SDS011;11727;52.134;5.052;2023-04-24T06:45:19;19.30;;;6.85;;
23115;SDS011;11727;52.134;5.052;2023-04-24T06:47:45;11.13;;;6.00;;
23115;SDS011;11727;52.134;5.052;2023-04-24T06:50:11;12.63;;;5.85;;
23115;SDS011;11727;52.134;5.052;2023-04-24T06:52:37;15.77;;;6.30;;
23115;SDS011;11727;52.134;5.052;2023-04-24T06:55:03;23.95;;;6.32;;
23115;SDS011;11727;52.134;5.052;2023-04-24T06:57:29;17.73;;;6.72;;
23115;SDS011;11727;52.134;5.052;2023-04-24T06:59:55;16.40;;;6.35;;
23115;SDS011;11727;52.134;5.052;2023-04-24T07:02:21;11.48;;;5.18;;
23115;SDS011;11727;52.134;5.052;2023-04-24T07:04:46;18.65;;;5.68;;
23115;SDS011;11727;52.134;5.052;2023-04-24T07:07:13;14.35;;;5.15;;
23115;SDS011;11727;52.134;5.052;2023-04-24T07:09:41;17.48;;;6.47;;
23115;SDS011;11727;52.134;5.052;2023-04-24T07:12:10;27.42;;;6.15;;
23115;SDS011;11727;52.134;5.052;2023-04-24T07:14:42;16.33;;;5.32;;
23115;SDS011;11727;52.134;5.052;2023-04-24T07:17:08;15.43;;;4.78;;
23115;SDS011;11727;52.134;5.052;2023-04-24T07:19:34;17.13;;;4.60;;
23115;SDS011;11727;52.134;5.052;2023-04-24T07:22:02;11.07;;;3.95;;
23115;SDS011;11727;52.134;5.052;2023-04-24T07:24:28;18.73;;;3.90;;
23115;SDS011;11727;52.134;5.052;2023-04-24T07:26:54;19.85;;;4.55;;
23115;SDS011;11727;52.134;5.052;2023-04-24T07:29:20;14.93;;;4.78;;
23115;SDS011;11727;52.134;5.052;2023-04-24T07:31:46;16.75;;;3.88;;
23115;SDS011;11727;52.134;5.052;2023-04-24T07:34:11;9.90;;;3.80;;
23115;SDS011;11727;52.134;5.052;2023-04-24T07:36:37;15.68;;;3.83;;
23115;SDS011;11727;52.134;5.052;2023-04-24T07:39:03;10.73;;;4.35;;
23115;SDS011;11727;52.134;5.052;2023-04-24T07:41:35;19.00;;;4.07;;
23115;SDS011;11727;52.134;5.052;2023-04-24T07:44:00;14.02;;;3.00;;
23115;SDS011;11727;52.134;5.052;2023-04-24T07:46:26;12.35;;;3.78;;
23115;SDS011;11727;52.134;5.052;2023-04-24T07:48:54;11.30;;;3.67;;
23115;SDS011;11727;52.134;5.052;2023-04-24T07:51:20;14.25;;;3.65;;
23115;SDS011;11727;52.134;5.052;2023-04-24T07:53:46;17.35;;;2.97;;
23115;SDS011;11727;52.134;5.052;2023-04-24T07:56:11;20.52;;;3.22;;
23115;SDS011;11727;52.134;5.052;2023-04-24T07:58:37;13.98;;;2.55;;
23115;SDS011;11727;52.134;5.052;2023-04-24T08:01:02;19.45;;;3.30;;
23115;SDS011;11727;52.134;5.052;2023-04-24T08:03:28;9.20;;;1.83;;
23115;SDS011;11727;52.134;5.052;2023-04-24T08:05:54;12.82;;;1.83;;
23115;SDS011;11727;52.134;5.052;2023-04-24T08:08:21;20.65;;;2.05;;
23115;SDS011;11727;52.134;5.052;2023-04-24T08:10:47;10.32;;;2.22;;
23115;SDS011;11727;52.134;5.052;2023-04-24T08:13:13;5.28;;;1.98;;
23115;SDS011;11727;52.134;5.052;2023-04-24T08:15:38;11.30;;;1.88;;
23115;SDS011;11727;52.134;5.052;2023-04-24T08:18:04;9.77;;;1.23;;
23115;SDS011;11727;52.134;5.052;2023-04-24T08:20:30;7.82;;;1.50;;
23115;SDS011;11727;52.134;5.052;2023-04-24T08:22:56;5.53;;;1.52;;
23115;SDS011;11727;52.134;5.052;2023-04-24T08:25:22;9.77;;;1.77;;
23115;SDS011;11727;52.134;5.052;2023-04-24T08:27:49;6.30;;;1.30;;
23115;SDS011;11727;52.134;5.052;2023-04-24T08:30:15;7.60;;;1.30;;
23115;SDS011;11727;52.134;5.052;2023-04-24T08:32:44;4.38;;;1.35;;
23115;SDS011;11727;52.134;5.052;2023-04-24T08:35:10;17.95;;;1.75;;
23115;SDS011;11727;52.134;5.052;2023-04-24T08:37:36;5.72;;;1.73;;
23115;SDS011;11727;52.134;5.052;2023-04-24T08:40:03;7.65;;;1.40;;
23115;SDS011;11727;52.134;5.052;2023-04-24T08:42:36;7.90;;;1.27;;
23115;SDS011;11727;52.134;5.052;2023-04-24T08:45:02;6.30;;;1.15;;
23115;SDS011;11727;52.134;5.052;2023-04-24T08:47:28;13.10;;;1.95;;
23115;SDS011;11727;52.134;5.052;2023-04-24T08:49:54;4.47;;;1.33;;
23115;SDS011;11727;52.134;5.052;2023-04-24T08:52:21;5.00;;;1.15;;
23115;SDS011;11727;52.134;5.052;2023-04-24T08:54:47;7.65;;;1.20;;
23115;SDS011;11727;52.134;5.052;2023-04-24T08:57:14;15.10;;;2.22;;
23115;SDS011;11727;52.134;5.052;2023-04-24T08:59:40;8.05;;;1.70;;
23115;SDS011;11727;52.134;5.052;2023-04-24T09:02:08;16.60;;;1.42;;
23115;SDS011;11727;52.134;5.052;2023-04-24T09:04:35;8.80;;;1.30;;
23115;SDS011;11727;52.134;5.052;2023-04-24T09:07:02;5.30;;;1.73;;
23115;SDS011;11727;52.134;5.052;2023-04-24T09:09:31;9.07;;;1.75;;
23115;SDS011;11727;52.134;5.052;2023-04-24T09:11:58;13.70;;;1.73;;
23115;SDS011;11727;52.134;5.052;2023-04-24T09:14:24;9.60;;;1.27;;
23115;SDS011;11727;52.134;5.052;2023-04-24T09:16:50;12.20;;;1.70;;
23115;SDS011;11727;52.134;5.052;2023-04-24T09:19:16;3.97;;;1.15;;
23115;SDS011;11727;52.134;5.052;2023-04-24T09:21:41;10.50;;;1.58;;
23115;SDS011;11727;52.134;5.052;2023-04-24T09:24:20;6.40;;;1.20;;
23115;SDS011;11727;52.134;5.052;2023-04-24T09:26:56;8.35;;;2.00;;
23115;SDS011;11727;52.134;5.052;2023-04-24T09:29:29;7.30;;;1.17;;
23115;SDS011;11727;52.134;5.052;2023-04-24T09:31:55;7.65;;;0.70;;
23115;SDS011;11727;52.134;5.052;2023-04-24T09:34:22;7.20;;;1.88;;
23115;SDS011;11727;52.134;5.052;2023-04-24T09:36:48;14.98;;;1.40;;
23115;SDS011;11727;52.134;5.052;2023-04-24T09:39:15;7.10;;;1.00;;
23115;SDS011;11727;52.134;5.052;2023-04-24T09:41:45;4.03;;;0.73;;
23115;SDS011;11727;52.134;5.052;2023-04-24T09:44:16;3.65;;;0.73;;
23115;SDS011;11727;52.134;5.052;2023-04-24T09:46:42;3.45;;;0.75;;
23115;SDS011;11727;52.134;5.052;2023-04-24T09:49:12;3.97;;;0.65;;
23115;SDS011;11727;52.134;5.052;2023-04-24T09:51:40;1.92;;;0.60;;
23115;SDS011;11727;52.134;5.052;2023-04-24T09:54:19;10.10;;;1.02;;
23115;SDS011;11727;52.134;5.052;2023-04-24T09:56:47;5.05;;;0.80;;
23115;SDS011;11727;52.134;5.052;2023-04-24T09:59:24;6.15;;;0.80;;
23115;SDS011;11727;52.134;5.052;2023-04-24T10:01:53;2.83;;;0.40;;
23115;SDS011;11727;52.134;5.052;2023-04-24T10:04:20;7.28;;;0.68;;
23115;SDS011;11727;52.134;5.052;2023-04-24T10:06:48;2.03;;;0.50;;
23115;SDS011;11727;52.134;5.052;2023-04-24T10:09:19;0.47;;;0.30;;
23115;SDS011;11727;52.134;5.052;2023-04-24T10:11:48;3.00;;;0.17;;
23115;SDS011;11727;52.134;5.052;2023-04-24T10:14:22;0.65;;;0.22;;
23115;SDS011;11727;52.134;5.052;2023-04-24T10:16:49;2.08;;;0.25;;
23115;SDS011;11727;52.134;5.052;2023-04-24T10:19:17;1.50;;;0.30;;
23115;SDS011;11727;52.134;5.052;2023-04-24T10:21:43;0.98;;;0.32;;
23115;SDS011;11727;52.134;5.052;2023-04-24T10:24:15;5.78;;;0.65;;
23115;SDS011;11727;52.134;5.052;2023-04-24T10:26:43;1.95;;;0.40;;
23115;SDS011;11727;52.134;5.052;2023-04-24T10:31:37;5.82;;;0.70;;
23115;SDS011;11727;52.134;5.052;2023-04-24T10:34:04;0.55;;;0.35;;
23115;SDS011;11727;52.134;5.052;2023-04-24T10:36:37;3.05;;;0.30;;
23115;SDS011;11727;52.134;5.052;2023-04-24T10:39:07;4.78;;;0.47;;
23115;SDS011;11727;52.134;5.052;2023-04-24T10:41:36;3.38;;;0.35;;
23115;SDS011;11727;52.134;5.052;2023-04-24T10:46:36;1.65;;;0.40;;
23115;SDS011;11727;52.134;5.052;2023-04-24T10:49:06;8.00;;;0.70;;
23115;SDS011;11727;52.134;5.052;2023-04-24T10:51:44;4.55;;;1.17;;
23115;SDS011;11727;52.134;5.052;2023-04-24T10:57:25;3.97;;;1.50;;
23115;SDS011;11727;52.134;5.052;2023-04-24T10:59:47;3.08;;;0.50;;
23115;SDS011;11727;52.134;5.052;2023-04-24T11:04:43;16.27;;;1.48;;
23115;SDS011;11727;52.134;5.052;2023-04-24T11:07:10;3.53;;;0.53;;
23115;SDS011;11727;52.134;5.052;2023-04-24T11:09:36;5.68;;;0.52;;
23115;SDS011;11727;52.134;5.052;2023-04-24T11:12:05;1.20;;;0.55;;
23115;SDS011;11727;52.134;5.052;2023-04-24T11:17:34;1.67;;;0.47;;
23115;SDS011;11727;52.134;5.052;2023-04-24T11:20:09;1.35;;;0.20;;
23115;SDS011;11727;52.134;5.052;2023-04-24T11:22:37;0.30;;;0.20;;
23115;SDS011;11727;52.134;5.052;2023-04-24T11:25:05;4.80;;;0.47;;
23115;SDS011;11727;52.134;5.052;2023-04-24T11:27:34;5.83;;;0.60;;
23115;SDS011;11727;52.134;5.052;2023-04-24T11:30:05;1.48;;;0.28;;
23115;SDS011;11727;52.134;5.052;2023-04-24T11:35:12;3.70;;;0.60;;
23115;SDS011;11727;52.134;5.052;2023-04-24T11:37:46;1.92;;;0.40;;
23115;SDS011;11727;52.134;5.052;2023-04-24T11:40:16;1.50;;;0.57;;
23115;SDS011;11727;52.134;5.052;2023-04-24T11:42:44;2.00;;;0.20;;
23115;SDS011;11727;52.134;5.052;2023-04-24T11:47:43;2.65;;;0.40;;
23115;SDS011;11727;52.134;5.052;2023-04-24T11:50:11;0.70;;;0.30;;
23115;SDS011;11727;52.134;5.052;2023-04-24T11:52:39;1.65;;;0.52;;
23115;SDS011;11727;52.134;5.052;2023-04-24T11:55:24;6.32;;;0.73;;
23115;SDS011;11727;52.134;5.052;2023-04-24T11:57:55;4.75;;;0.38;;
23115;SDS011;11727;52.134;5.052;2023-04-24T12:00:31;10.27;;;1.58;;
23115;SDS011;11727;52.134;5.052;2023-04-24T12:03:05;1.80;;;0.47;;
23115;SDS011;11727;52.134;5.052;2023-04-24T12:05:35;5.43;;;0.55;;
23115;SDS011;11727;52.134;5.052;2023-04-24T12:08:00;1.88;;;0.40;;
23115;SDS011;11727;52.134;5.052;2023-04-24T12:10:27;4.22;;;0.85;;
23115;SDS011;11727;52.134;5.052;2023-04-24T12:12:55;5.22;;;1.20;;
23115;SDS011;11727;52.134;5.052;2023-04-24T12:17:49;3.58;;;0.55;;
23115;SDS011;11727;52.134;5.052;2023-04-24T12:20:16;3.50;;;0.68;;
23115;SDS011;11727;52.134;5.052;2023-04-24T12:22:43;6.75;;;0.77;;
23115;SDS011;11727;52.134;5.052;2023-04-24T12:25:14;5.75;;;0.82;;
23115;SDS011;11727;52.134;5.052;2023-04-24T12:27:44;7.82;;;0.85;;
23115;SDS011;11727;52.134;5.052;2023-04-24T12:30:14;5.10;;;1.23;;
23115;SDS011;11727;52.134;5.052;2023-04-24T12:32:42;4.13;;;0.70;;
23115;SDS011;11727;52.134;5.052;2023-04-24T12:35:09;5.43;;;0.88;;
23115;SDS011;11727;52.134;5.052;2023-04-24T12:37:38;12.27;;;1.38;;
23115;SDS011;11727;52.134;5.052;2023-04-24T12:40:08;3.03;;;0.65;;
23115;SDS011;11727;52.134;5.052;2023-04-24T12:42:41;4.25;;;0.60;;
23115;SDS011;11727;52.134;5.052;2023-04-24T12:45:11;5.90;;;0.63;;
23115;SDS011;11727;52.134;5.052;2023-04-24T12:47:37;5.45;;;1.13;;
23115;SDS011;11727;52.134;5.052;2023-04-24T12:50:05;8.05;;;0.93;;
23115;SDS011;11727;52.134;5.052;2023-04-24T12:52:32;6.70;;;1.05;;
23115;SDS011;11727;52.134;5.052;2023-04-24T12:54:58;11.23;;;1.33;;
23115;SDS011;11727;52.134;5.052;2023-04-24T12:57:25;7.22;;;1.17;;
23115;SDS011;11727;52.134;5.052;2023-04-24T12:59:57;6.38;;;1.50;;
23115;SDS011;11727;52.134;5.052;2023-04-24T13:02:24;10.88;;;1.25;;
23115;SDS011;11727;52.134;5.052;2023-04-24T13:04:51;8.80;;;1.30;;
23115;SDS011;11727;52.134;5.052;2023-04-24T13:07:17;8.57;;;1.38;;
23115;SDS011;11727;52.134;5.052;2023-04-24T13:09:43;12.75;;;1.77;;
23115;SDS011;11727;52.134;5.052;2023-04-24T13:12:09;4.28;;;1.30;;
23115;SDS011;11727;52.134;5.052;2023-04-24T13:14:36;9.98;;;1.63;;
23115;SDS011;11727;52.134;5.052;2023-04-24T13:17:02;12.02;;;1.55;;
23115;SDS011;11727;52.134;5.052;2023-04-24T13:19:29;4.78;;;0.95;;
23115;SDS011;11727;52.134;5.052;2023-04-24T13:21:55;7.03;;;1.20;;
23115;SDS011;11727;52.134;5.052;2023-04-24T13:24:25;4.93;;;1.05;;
23115;SDS011;11727;52.134;5.052;2023-04-24T13:26:54;11.55;;;1.20;;
23115;SDS011;11727;52.134;5.052;2023-04-24T13:29:21;8.23;;;1.35;;
23115;SDS011;11727;52.134;5.052;2023-04-24T13:31:49;6.90;;;1.95;;
23115;SDS011;11727;52.134;5.052;2023-04-24T13:34:16;12.27;;;1.80;;
23115;SDS011;11727;52.134;5.052;2023-04-24T13:36:42;11.95;;;1.10;;
23115;SDS011;11727;52.134;5.052;2023-04-24T13:39:08;8.10;;;1.63;;
23115;SDS011;11727;52.134;5.052;2023-04-24T13:41:33;4.65;;;0.95;;
23115;SDS011;11727;52.134;5.052;2023-04-24T13:44:01;2.92;;;1.00;;
23115;SDS011;11727;52.134;5.052;2023-04-24T13:46:27;4.22;;;1.15;;
23115;SDS011;11727;52.134;5.052;2023-04-24T13:48:53;1.15;;;0.70;;
23115;SDS011;11727;52.134;5.052;2023-04-24T13:51:18;2.67;;;1.02;;
23115;SDS011;11727;52.134;5.052;2023-04-24T13:53:44;5.28;;;1.83;;
23115;SDS011;11727;52.134;5.052;2023-04-24T13:56:09;6.43;;;0.95;;
23115;SDS011;11727;52.134;5.052;2023-04-24T13:58:35;6.82;;;1.17;;
23115;SDS011;11727;52.134;5.052;2023-04-24T14:01:02;5.70;;;1.30;;
23115;SDS011;11727;52.134;5.052;2023-04-24T14:03:28;6.22;;;1.50;;
23115;SDS011;11727;52.134;5.052;2023-04-24T14:05:54;7.60;;;1.60;;
23115;SDS011;11727;52.134;5.052;2023-04-24T14:08:19;4.82;;;1.48;;
23115;SDS011;11727;52.134;5.052;2023-04-24T14:10:45;6.80;;;1.10;;
23115;SDS011;11727;52.134;5.052;2023-04-24T14:13:11;2.90;;;0.90;;
23115;SDS011;11727;52.134;5.052;2023-04-24T14:15:37;3.60;;;1.00;;
23115;SDS011;11727;52.134;5.052;2023-04-24T14:18:03;7.43;;;1.52;;
23115;SDS011;11727;52.134;5.052;2023-04-24T14:20:29;10.15;;;1.52;;
23115;SDS011;11727;52.134;5.052;2023-04-24T14:22:55;7.97;;;1.75;;
23115;SDS011;11727;52.134;5.052;2023-04-24T14:25:24;9.73;;;1.60;;
23115;SDS011;11727;52.134;5.052;2023-04-24T14:27:50;9.07;;;1.30;;
23115;SDS011;11727;52.134;5.052;2023-04-24T14:30:15;13.30;;;1.50;;
23115;SDS011;11727;52.134;5.052;2023-04-24T14:32:41;6.00;;;1.17;;
23115;SDS011;11727;52.134;5.052;2023-04-24T14:35:07;13.88;;;1.90;;
23115;SDS011;11727;52.134;5.052;2023-04-24T14:37:33;6.65;;;1.65;;
23115;SDS011;11727;52.134;5.052;2023-04-24T14:39:58;6.40;;;1.08;;
23115;SDS011;11727;52.134;5.052;2023-04-24T14:42:24;8.82;;;1.67;;
23115;SDS011;11727;52.134;5.052;2023-04-24T14:44:50;3.20;;;0.82;;
23115;SDS011;11727;52.134;5.052;2023-04-24T14:47:16;5.75;;;1.35;;
23115;SDS011;11727;52.134;5.052;2023-04-24T14:49:46;4.28;;;1.55;;
23115;SDS011;11727;52.134;5.052;2023-04-24T14:52:12;10.50;;;2.00;;
23115;SDS011;11727;52.134;5.052;2023-04-24T14:54:38;7.47;;;2.28;;
23115;SDS011;11727;52.134;5.052;2023-04-24T14:57:03;16.00;;;1.65;;
23115;SDS011;11727;52.134;5.052;2023-04-24T14:59:29;12.45;;;2.22;;
23115;SDS011;11727;52.134;5.052;2023-04-24T15:01:56;12.88;;;2.63;;
23115;SDS011;11727;52.134;5.052;2023-04-24T15:04:26;7.07;;;1.63;;
23115;SDS011;11727;52.134;5.052;2023-04-24T15:06:52;12.63;;;2.13;;